createdAt,value
2023-06-29T00:00:25.077Z,16.48
2023-06-29T00:02:54.329Z,16.48
2023-06-29T00:05:22.847Z,16.47
2023-06-29T00:07:50.243Z,16.49
2023-06-29T00:10:17.408Z,16.50
2023-06-29T00:12:45.705Z,16.50
2023-06-29T00:15:12.609Z,16.51
2023-06-29T00:17:39.494Z,16.51
2023-06-29T00:20:10.921Z,16.52
2023-06-29T00:22:41.837Z,16.52
2023-06-29T00:25:12.870Z,16.52
2023-06-29T00:27:39.695Z,16.53
2023-06-29T00:30:07.068Z,16.52
2023-06-29T00:32:34.925Z,16.52
2023-06-29T00:35:01.886Z,16.52
2023-06-29T00:37:29.918Z,16.52
2023-06-29T00:39:56.785Z,16.51
2023-06-29T00:42:26.003Z,16.52
2023-06-29T00:44:55.819Z,16.52
2023-06-29T00:47:23.232Z,16.54
2023-06-29T00:49:50.557Z,16.54
2023-06-29T00:52:18.363Z,16.53
2023-06-29T00:54:45.600Z,16.53
2023-06-29T00:57:13.048Z,16.52
2023-06-29T00:59:40.845Z,16.52
2023-06-29T01:02:10.344Z,16.51
2023-06-29T01:04:38.029Z,16.52
2023-06-29T01:07:05.181Z,16.50
2023-06-29T01:09:33.368Z,16.49
2023-06-29T01:12:01.231Z,16.50
2023-06-29T01:14:29.929Z,16.51
2023-06-29T01:16:59.513Z,16.51
2023-06-29T01:19:33.540Z,16.51
2023-06-29T01:22:04.518Z,16.51
2023-06-29T01:24:40.001Z,16.48
2023-06-29T01:27:10.430Z,16.43
2023-06-29T01:29:38.120Z,16.40
2023-06-29T01:32:05.960Z,16.37
2023-06-29T01:34:33.113Z,16.37
2023-06-29T01:37:32.204Z,16.36
2023-06-29T01:40:07.918Z,16.35
2023-06-29T01:42:35.660Z,16.35
2023-06-29T01:45:07.051Z,16.35
2023-06-29T01:47:35.282Z,16.32
2023-06-29T01:50:03.773Z,16.28
2023-06-29T01:52:31.141Z,16.25
2023-06-29T01:54:57.914Z,16.21
2023-06-29T01:57:29.454Z,16.15
2023-06-29T01:59:56.629Z,16.11
2023-06-29T02:02:23.480Z,16.09
2023-06-29T02:04:50.313Z,16.07
2023-06-29T02:07:17.152Z,16.04
2023-06-29T02:09:44.863Z,16.02
2023-06-29T02:12:12.110Z,16.02
2023-06-29T02:14:39.352Z,16.00
2023-06-29T02:17:06.473Z,15.98
2023-06-29T02:19:33.446Z,15.97
2023-06-29T02:22:04.328Z,15.92
2023-06-29T02:24:32.330Z,15.88
2023-06-29T02:27:01.045Z,15.87
2023-06-29T02:29:46.891Z,15.84
2023-06-29T02:32:14.198Z,15.85
2023-06-29T02:34:41.428Z,15.85
2023-06-29T02:37:08.438Z,15.86
2023-06-29T02:39:36.529Z,15.81
2023-06-29T02:42:03.387Z,15.77
2023-06-29T02:44:30.616Z,15.75
2023-06-29T02:47:00.206Z,15.75
2023-06-29T02:49:29.036Z,15.75
2023-06-29T02:51:55.914Z,15.77
2023-06-29T02:54:22.902Z,15.82
2023-06-29T02:56:53.117Z,15.86
2023-06-29T02:59:20.056Z,15.89
2023-06-29T03:01:47.302Z,15.88
2023-06-29T03:04:14.334Z,15.89
2023-06-29T03:06:41.227Z,15.90
2023-06-29T03:09:08.384Z,15.94
2023-06-29T03:11:35.339Z,16.02
2023-06-29T03:14:02.322Z,16.07
2023-06-29T03:16:29.830Z,16.11
2023-06-29T03:18:56.601Z,16.13
2023-06-29T03:21:23.465Z,16.13
2023-06-29T03:23:50.917Z,16.10
2023-06-29T03:26:17.969Z,16.09
2023-06-29T03:28:44.764Z,16.06
2023-06-29T03:31:11.696Z,16.01
2023-06-29T03:33:38.510Z,15.96
2023-06-29T03:36:06.629Z,15.95
2023-06-29T03:38:33.460Z,15.95
2023-06-29T03:41:00.320Z,15.94
2023-06-29T03:43:27.149Z,15.92
2023-06-29T03:45:54.028Z,15.92
2023-06-29T03:48:23.547Z,15.93
2023-06-29T03:50:50.762Z,15.92
2023-06-29T03:53:17.734Z,15.91
2023-06-29T03:55:44.977Z,15.92
2023-06-29T03:58:12.292Z,15.92
2023-06-29T04:00:39.276Z,15.88
2023-06-29T04:03:06.658Z,15.86
2023-06-29T04:05:33.728Z,15.84
2023-06-29T04:08:06.637Z,15.79
2023-06-29T04:10:34.360Z,15.79
2023-06-29T04:13:01.345Z,15.81
2023-06-29T04:15:28.347Z,15.83
2023-06-29T04:17:55.178Z,15.83
2023-06-29T04:20:22.052Z,15.85
2023-06-29T04:22:48.988Z,15.88
2023-06-29T04:25:15.792Z,15.90
2023-06-29T04:27:43.464Z,15.93
2023-06-29T04:30:10.504Z,15.99
2023-06-29T04:32:37.386Z,16.05
2023-06-29T04:35:05.230Z,16.12
2023-06-29T04:37:52.876Z,16.18
2023-06-29T04:40:19.818Z,16.24
2023-06-29T04:42:48.870Z,16.30
2023-06-29T04:45:20.572Z,16.39
2023-06-29T04:47:50.761Z,16.51
2023-06-29T04:50:26.477Z,16.63
2023-06-29T04:52:56.885Z,16.75
2023-06-29T04:55:23.943Z,16.85
2023-06-29T04:57:50.856Z,16.99
2023-06-29T05:00:17.898Z,17.17
2023-06-29T05:02:45.089Z,17.34
2023-06-29T05:05:12.874Z,17.54
2023-06-29T05:07:39.930Z,17.74
2023-06-29T05:10:07.108Z,17.97
2023-06-29T05:12:34.312Z,18.16
2023-06-29T05:15:01.171Z,18.31
2023-06-29T05:17:28.164Z,18.42
2023-06-29T05:19:55.127Z,18.54
2023-06-29T05:22:22.126Z,18.64
2023-06-29T05:24:49.418Z,18.73
2023-06-29T05:27:16.314Z,18.79
2023-06-29T05:29:44.231Z,18.84
2023-06-29T05:32:11.175Z,18.84
2023-06-29T05:34:38.275Z,18.88
2023-06-29T05:37:05.659Z,19.02
2023-06-29T05:39:32.558Z,19.17
2023-06-29T05:41:59.515Z,19.24
2023-06-29T05:44:26.300Z,19.32
2023-06-29T05:46:53.217Z,19.39
2023-06-29T05:49:20.154Z,19.45
2023-06-29T05:51:47.028Z,19.48
2023-06-29T05:54:13.982Z,19.49
2023-06-29T05:56:41.245Z,19.53
2023-06-29T05:59:08.293Z,19.57
2023-06-29T06:01:36.538Z,19.65
2023-06-29T06:04:07.449Z,19.75
2023-06-29T06:06:34.378Z,19.74
2023-06-29T06:09:01.306Z,19.62
2023-06-29T06:11:28.340Z,19.50
2023-06-29T06:13:55.457Z,19.51
2023-06-29T06:16:22.545Z,19.70
2023-06-29T06:18:49.509Z,19.98
2023-06-29T06:21:16.946Z,20.28
2023-06-29T06:23:43.930Z,20.53
2023-06-29T06:26:10.899Z,20.77
2023-06-29T06:28:37.745Z,20.95
2023-06-29T06:31:04.789Z,21.14
2023-06-29T06:33:34.314Z,21.25
2023-06-29T06:36:01.314Z,21.33
2023-06-29T06:38:44.808Z,21.45
2023-06-29T06:41:15.912Z,21.56
2023-06-29T06:43:43.166Z,21.59
2023-06-29T06:46:10.043Z,21.57
2023-06-29T06:48:36.977Z,21.51
2023-06-29T06:51:03.915Z,21.40
2023-06-29T06:53:30.926Z,21.24
2023-06-29T06:55:58.279Z,21.10
2023-06-29T06:58:25.515Z,20.95
2023-06-29T07:00:52.392Z,20.86
2023-06-29T07:03:20.491Z,20.81
2023-06-29T07:05:47.968Z,20.76
2023-06-29T07:08:14.912Z,20.74
2023-06-29T07:10:42.376Z,20.73
2023-06-29T07:13:09.592Z,20.72
2023-06-29T07:15:36.594Z,20.71
2023-06-29T07:18:04.221Z,20.73
2023-06-29T07:25:32.987Z,20.81
2023-06-29T07:28:00.223Z,20.82
2023-06-29T07:30:27.169Z,20.83
2023-06-29T07:32:54.224Z,20.84
2023-06-29T07:35:21.108Z,20.87
2023-06-29T07:37:48.046Z,20.89
2023-06-29T07:40:15.008Z,20.93
2023-06-29T07:42:42.007Z,21.00
2023-06-29T07:45:09.544Z,21.09
2023-06-29T07:47:36.636Z,21.20
2023-06-29T07:50:03.771Z,21.29
2023-06-29T07:52:32.231Z,21.40
2023-06-29T07:54:59.353Z,21.53
2023-06-29T07:59:56.546Z,21.74
2023-06-29T08:02:23.632Z,21.86
2023-06-29T08:07:23.431Z,22.20
2023-06-29T08:09:50.508Z,22.44
2023-06-29T08:12:17.345Z,22.63
2023-06-29T08:14:45.011Z,22.76
2023-06-29T08:17:12.053Z,22.89
2023-06-29T08:19:38.835Z,22.99
2023-06-29T08:22:05.862Z,23.14
2023-06-29T08:24:32.725Z,23.30
2023-06-29T08:27:00.199Z,23.41
2023-06-29T08:29:27.229Z,23.37
2023-06-29T08:31:54.182Z,23.26
2023-06-29T08:34:21.161Z,23.15
2023-06-29T08:36:49.700Z,23.16
2023-06-29T08:39:21.051Z,23.34
2023-06-29T08:41:47.981Z,23.57
2023-06-29T08:44:15.066Z,23.69
2023-06-29T08:46:43.181Z,23.74
2023-06-29T08:49:10.448Z,23.72
2023-06-29T08:51:41.706Z,23.74
2023-06-29T08:54:09.587Z,23.82
2023-06-29T08:56:37.039Z,23.96
2023-06-29T08:59:04.058Z,24.07
2023-06-29T09:01:31.672Z,24.15
2023-06-29T09:03:58.915Z,24.19
2023-06-29T09:06:27.954Z,24.25
2023-06-29T09:08:55.969Z,24.26
2023-06-29T09:11:22.975Z,24.17
2023-06-29T09:13:51.106Z,24.02
2023-06-29T09:16:22.662Z,23.86
2023-06-29T09:18:51.736Z,23.84
2023-06-29T09:21:18.958Z,23.97
2023-06-29T09:23:46.020Z,24.19
2023-06-29T09:26:13.052Z,24.26
2023-06-29T09:28:45.958Z,24.25
2023-06-29T09:31:13.994Z,24.29
2023-06-29T09:33:41.144Z,24.43
2023-06-29T09:36:09.612Z,24.46
2023-06-29T09:38:38.035Z,24.51
2023-06-29T09:41:06.345Z,24.70
2023-06-29T09:43:33.682Z,24.91
2023-06-29T09:46:03.487Z,25.06
2023-06-29T09:51:02.006Z,25.27
2023-06-29T09:53:32.968Z,25.28
2023-06-29T09:56:01.217Z,25.30
2023-06-29T09:58:29.345Z,25.29
2023-06-29T10:00:59.954Z,25.26
2023-06-29T10:03:28.822Z,25.27
2023-06-29T10:05:58.547Z,25.19
2023-06-29T10:08:28.503Z,25.06
2023-06-29T10:11:00.726Z,24.97
2023-06-29T10:13:29.654Z,24.97
2023-06-29T10:15:58.431Z,24.98
2023-06-29T10:18:31.041Z,25.02
2023-06-29T10:20:57.937Z,25.11
2023-06-29T10:23:27.068Z,25.06
2023-06-29T10:25:54.581Z,24.91
2023-06-29T10:28:22.280Z,24.75
2023-06-29T10:30:50.348Z,24.59
2023-06-29T10:33:23.957Z,24.52
2023-06-29T10:36:03.832Z,24.48
2023-06-29T10:38:37.013Z,24.50
2023-06-29T10:41:07.907Z,24.57
2023-06-29T10:43:54.609Z,24.67
2023-06-29T10:46:40.063Z,24.78
2023-06-29T10:49:09.909Z,24.88
2023-06-29T10:51:49.900Z,24.96
2023-06-29T10:54:17.118Z,25.00
2023-06-29T10:56:56.974Z,25.02
2023-06-29T10:59:24.379Z,24.98
2023-06-29T11:01:52.109Z,24.95
2023-06-29T11:04:19.392Z,24.87
2023-06-29T11:06:46.464Z,24.76
2023-06-29T11:09:14.355Z,24.52
2023-06-29T11:11:42.109Z,24.13
2023-06-29T11:14:11.913Z,23.59
2023-06-29T11:19:09.558Z,22.49
2023-06-29T11:21:38.752Z,22.03
2023-06-29T11:24:06.868Z,21.65
2023-06-29T11:26:34.102Z,21.32
2023-06-29T11:29:01.131Z,20.89
2023-06-29T11:31:28.174Z,20.27
2023-06-29T11:33:55.113Z,19.63
2023-06-29T11:36:38.199Z,19.11
2023-06-29T11:39:09.908Z,18.72
2023-06-29T11:41:41.354Z,18.48
2023-06-29T11:44:11.256Z,18.31
2023-06-29T11:46:43.992Z,18.15
2023-06-29T11:49:11.068Z,18.03
2023-06-29T11:51:40.417Z,17.93
2023-06-29T11:54:08.641Z,17.86
2023-06-29T11:56:37.142Z,17.85
2023-06-29T11:59:08.169Z,17.83
2023-06-29T12:01:36.448Z,17.82
2023-06-29T12:04:07.664Z,17.77
2023-06-29T12:06:34.883Z,17.71
2023-06-29T12:09:02.194Z,17.68
2023-06-29T12:11:29.892Z,17.64
2023-06-29T12:13:56.690Z,17.60
2023-06-29T12:18:53.967Z,17.49
2023-06-29T12:21:22.308Z,17.41
2023-06-29T12:23:51.636Z,17.36
2023-06-29T12:26:20.375Z,17.31
2023-06-29T12:28:47.472Z,17.25
2023-06-29T12:31:14.316Z,17.21
2023-06-29T12:33:41.371Z,17.20
2023-06-29T12:36:08.472Z,17.21
2023-06-29T12:38:35.437Z,17.25
2023-06-29T12:41:02.673Z,17.29
2023-06-29T12:43:29.749Z,17.34
2023-06-29T12:45:57.720Z,17.41
2023-06-29T12:48:24.841Z,17.49
2023-06-29T12:50:52.007Z,17.61
2023-06-29T12:53:19.108Z,17.70
2023-06-29T12:55:46.245Z,17.82
2023-06-29T12:58:13.156Z,17.94
2023-06-29T13:00:40.380Z,18.03
2023-06-29T13:03:13.428Z,18.12
2023-06-29T13:05:40.368Z,18.23
2023-06-29T13:08:07.222Z,18.33
2023-06-29T13:10:37.398Z,18.43
2023-06-29T13:13:04.687Z,18.53
2023-06-29T13:15:31.909Z,18.64
2023-06-29T13:17:58.804Z,18.71
2023-06-29T13:20:25.797Z,18.73
2023-06-29T13:22:52.841Z,18.67
2023-06-29T13:25:20.042Z,18.51
2023-06-29T13:27:48.202Z,18.29
2023-06-29T13:30:16.897Z,18.12
2023-06-29T13:32:44.443Z,17.98
2023-06-29T13:35:11.294Z,17.83
2023-06-29T13:37:38.243Z,17.75
2023-06-29T13:40:05.496Z,17.69
2023-06-29T13:42:32.728Z,17.64
2023-06-29T13:44:59.722Z,17.60
2023-06-29T13:47:27.285Z,17.59
2023-06-29T13:49:54.221Z,17.58
2023-06-29T13:52:20.972Z,17.56
2023-06-29T13:54:48.569Z,17.47
2023-06-29T13:57:15.458Z,17.37
2023-06-29T14:00:00.964Z,17.24
2023-06-29T14:02:27.908Z,17.11
2023-06-29T14:04:55.015Z,16.96
2023-06-29T14:07:24.115Z,16.84
2023-06-29T14:09:51.082Z,16.75
2023-06-29T14:12:17.902Z,16.66
2023-06-29T14:14:45.913Z,16.58
2023-06-29T14:17:20.353Z,16.54
2023-06-29T14:19:47.512Z,16.53
2023-06-29T14:22:14.795Z,16.52
2023-06-29T14:24:41.678Z,16.52
2023-06-29T14:27:08.723Z,16.53
2023-06-29T14:29:36.077Z,16.54
2023-06-29T14:32:02.964Z,16.54
2023-06-29T14:34:29.927Z,16.57
2023-06-29T14:36:56.930Z,16.59
2023-06-29T14:39:23.853Z,16.61
2023-06-29T14:41:57.256Z,16.63
2023-06-29T14:44:24.305Z,16.65
2023-06-29T14:46:51.521Z,16.69
2023-06-29T14:49:18.751Z,16.74
2023-06-29T14:51:45.840Z,16.80
2023-06-29T14:54:12.720Z,16.86
2023-06-29T14:56:39.887Z,16.91
2023-06-29T14:59:07.010Z,16.97
2023-06-29T15:01:33.947Z,17.01
2023-06-29T15:04:01.182Z,17.06
2023-06-29T15:06:28.203Z,17.09
2023-06-29T15:08:55.599Z,17.14
2023-06-29T15:11:22.903Z,17.19
2023-06-29T15:13:50.166Z,17.24
2023-06-29T15:16:17.155Z,17.30
2023-06-29T15:18:54.945Z,17.35
2023-06-29T15:21:26.563Z,17.37
2023-06-29T15:23:53.745Z,17.37
2023-06-29T15:26:20.948Z,17.39
2023-06-29T15:28:47.920Z,17.41
2023-06-29T15:31:16.322Z,17.42
2023-06-29T15:33:43.554Z,17.45
2023-06-29T15:36:10.780Z,17.46
2023-06-29T15:38:37.903Z,17.46
2023-06-29T15:41:04.962Z,17.45
2023-06-29T15:43:32.434Z,17.43
2023-06-29T15:45:59.292Z,17.40
2023-06-29T15:48:26.213Z,17.38
2023-06-29T15:50:53.173Z,17.37
2023-06-29T15:53:20.216Z,17.36
2023-06-29T15:55:47.506Z,17.38
2023-06-29T15:58:14.503Z,17.44
2023-06-29T16:00:44.020Z,17.53
2023-06-29T16:03:11.062Z,17.62
2023-06-29T16:05:38.033Z,17.67
2023-06-29T16:08:05.240Z,17.71
2023-06-29T16:10:32.301Z,17.78
2023-06-29T16:12:59.148Z,17.85
2023-06-29T16:15:27.910Z,17.91
2023-06-29T16:17:55.593Z,18.00
2023-06-29T16:20:22.573Z,18.08
2023-06-29T16:22:49.587Z,18.16
2023-06-29T16:25:16.401Z,18.21
2023-06-29T16:27:43.395Z,18.21
2023-06-29T16:30:10.503Z,18.20
2023-06-29T16:32:37.448Z,18.20
2023-06-29T16:35:04.561Z,18.34
2023-06-29T16:37:31.602Z,18.73
2023-06-29T16:39:58.494Z,19.21
2023-06-29T16:42:25.341Z,19.58
2023-06-29T16:44:52.306Z,19.94
2023-06-29T16:47:19.489Z,20.38
2023-06-29T16:49:49.850Z,20.85
2023-06-29T16:52:19.273Z,21.30
2023-06-29T16:54:46.194Z,21.72
2023-06-29T16:57:13.071Z,22.09
2023-06-29T16:59:40.242Z,22.40
2023-06-29T17:02:07.431Z,22.58
2023-06-29T17:04:34.459Z,22.73
2023-06-29T17:07:01.311Z,22.80
2023-06-29T17:09:28.212Z,22.83
2023-06-29T17:11:55.098Z,22.85
2023-06-29T17:14:22.040Z,22.93
2023-06-29T17:16:49.066Z,22.99
2023-06-29T17:19:16.235Z,22.96
2023-06-29T17:21:43.084Z,22.82
2023-06-29T17:24:10.195Z,22.73
2023-06-29T17:26:37.116Z,22.64
2023-06-29T17:29:04.831Z,22.55
2023-06-29T17:31:32.419Z,22.44
2023-06-29T17:33:59.553Z,22.31
2023-06-29T17:36:28.315Z,22.10
2023-06-29T17:38:56.228Z,21.73
2023-06-29T17:41:23.302Z,21.27
2023-06-29T17:43:50.205Z,20.86
2023-06-29T17:46:17.047Z,20.54
2023-06-29T17:48:44.308Z,20.18
2023-06-29T17:51:15.509Z,19.85
2023-06-29T17:53:43.929Z,19.51
2023-06-29T17:56:12.509Z,19.20
2023-06-29T17:58:39.415Z,18.92
2023-06-29T18:01:06.213Z,18.67
2023-06-29T18:03:33.282Z,18.46
2023-06-29T18:06:00.328Z,18.27
2023-06-29T18:08:27.230Z,18.10
2023-06-29T18:10:54.205Z,17.95
2023-06-29T18:13:21.087Z,17.83
2023-06-29T18:15:48.358Z,17.75
2023-06-29T18:18:15.611Z,17.66
2023-06-29T18:20:45.197Z,17.60
2023-06-29T18:23:15.096Z,17.53
2023-06-29T18:25:42.172Z,17.48
2023-06-29T18:28:11.863Z,17.42
2023-06-29T18:30:40.714Z,17.36
2023-06-29T18:33:07.709Z,17.30
2023-06-29T18:35:34.781Z,17.27
2023-06-29T18:38:01.745Z,17.19
2023-06-29T18:40:29.345Z,17.13
2023-06-29T18:43:01.043Z,17.08
2023-06-29T18:45:30.154Z,17.04
2023-06-29T18:47:57.818Z,17.01
2023-06-29T18:50:24.751Z,16.99
2023-06-29T18:52:55.160Z,16.97
2023-06-29T18:55:22.052Z,16.94
2023-06-29T18:57:49.267Z,16.92
2023-06-29T19:00:16.623Z,16.89
2023-06-29T19:02:44.956Z,16.85
2023-06-29T19:05:12.178Z,16.82
2023-06-29T19:07:39.376Z,16.77
2023-06-29T19:10:06.611Z,16.74
2023-06-29T19:12:33.673Z,16.70
2023-06-29T19:15:00.591Z,16.69
2023-06-29T19:17:29.314Z,16.67
2023-06-29T19:19:56.341Z,16.65
2023-06-29T19:22:23.161Z,16.61
2023-06-29T19:24:50.016Z,16.58
2023-06-29T19:27:16.965Z,16.54
2023-06-29T19:29:43.799Z,16.51
2023-06-29T19:32:11.460Z,16.49
2023-06-29T19:34:38.416Z,16.46
2023-06-29T19:37:05.591Z,16.42
2023-06-29T19:39:32.622Z,16.41
2023-06-29T19:41:59.538Z,16.41
2023-06-29T19:44:26.536Z,16.39
2023-06-29T19:46:53.718Z,16.37
2023-06-29T19:49:21.633Z,16.34
2023-06-29T19:51:48.432Z,16.30
2023-06-29T19:54:15.271Z,16.27
2023-06-29T19:56:44.195Z,16.23
2023-06-29T19:59:11.155Z,16.18
2023-06-29T20:01:37.946Z,16.15
2023-06-29T20:04:04.908Z,16.11
2023-06-29T20:06:31.839Z,16.07
2023-06-29T20:08:58.821Z,16.05
2023-06-29T20:11:25.878Z,16.03
2023-06-29T20:13:52.829Z,16.01
2023-06-29T20:16:19.708Z,16.00
2023-06-29T20:18:46.676Z,15.99
2023-06-29T20:21:14.826Z,15.97
2023-06-29T20:23:42.036Z,15.97
2023-06-29T20:26:08.889Z,15.96
2023-06-29T20:28:35.761Z,15.96
2023-06-29T20:31:02.920Z,15.96
2023-06-29T20:33:30.040Z,15.96
2023-06-29T20:35:57.250Z,15.95
2023-06-29T20:38:24.206Z,15.95
2023-06-29T20:40:51.248Z,15.95
2023-06-29T20:43:20.756Z,15.93
2023-06-29T20:45:48.667Z,15.95
2023-06-29T20:48:16.139Z,15.95
2023-06-29T20:50:43.101Z,15.94
2023-06-29T20:53:10.069Z,15.94
2023-06-29T20:55:36.997Z,15.94
2023-06-29T20:58:03.943Z,15.94
2023-06-29T21:00:31.377Z,15.95
2023-06-29T21:02:58.238Z,15.95
2023-06-29T21:05:27.070Z,15.94
2023-06-29T21:07:54.409Z,15.93
2023-06-29T21:10:21.372Z,15.92
2023-06-29T21:12:52.151Z,15.92
2023-06-29T21:15:19.179Z,15.90
2023-06-29T21:17:46.154Z,15.89
2023-06-29T21:20:13.259Z,15.88
2023-06-29T21:22:40.335Z,15.86
2023-06-29T21:25:07.663Z,15.85
2023-06-29T21:27:36.073Z,15.85
2023-06-29T21:30:03.268Z,15.83
2023-06-29T21:32:30.399Z,15.82
2023-06-29T21:34:57.459Z,15.78
2023-06-29T21:37:24.743Z,15.76
2023-06-29T21:39:51.925Z,15.73
2023-06-29T21:42:19.988Z,15.71
2023-06-29T21:44:47.242Z,15.66
2023-06-29T21:47:14.268Z,15.63
2023-06-29T21:49:41.577Z,15.60
2023-06-29T21:52:08.745Z,15.56
2023-06-29T21:54:35.703Z,15.53
2023-06-29T21:57:02.663Z,15.47
2023-06-29T21:59:29.471Z,15.44
2023-06-29T22:01:56.849Z,15.43
2023-06-29T22:04:23.770Z,15.41
2023-06-29T22:06:56.339Z,15.41
2023-06-29T22:09:26.188Z,15.42
2023-06-29T22:11:53.068Z,15.43
2023-06-29T22:14:19.959Z,15.44
2023-06-29T22:16:47.088Z,15.45
2023-06-29T22:19:16.677Z,15.46
2023-06-29T22:21:43.606Z,15.47
2023-06-29T22:24:10.766Z,15.49
2023-06-29T22:26:37.767Z,15.48
2023-06-29T22:29:04.731Z,15.48
2023-06-29T22:31:31.719Z,15.48
2023-06-29T22:33:58.490Z,15.49
2023-06-29T22:36:25.551Z,15.49
2023-06-29T22:38:52.870Z,15.49
2023-06-29T22:41:19.833Z,15.50
2023-06-29T22:43:46.947Z,15.52
2023-06-29T22:46:13.883Z,15.52
2023-06-29T22:48:42.238Z,15.52
2023-06-29T22:51:09.326Z,15.50
2023-06-29T22:53:36.222Z,15.50
2023-06-29T22:56:03.085Z,15.46
2023-06-29T22:58:29.979Z,15.44
2023-06-29T23:00:57.003Z,15.45
2023-06-29T23:03:24.477Z,15.43
2023-06-29T23:05:51.886Z,15.42
2023-06-29T23:08:18.757Z,15.42
2023-06-29T23:10:47.929Z,15.42
2023-06-29T23:13:18.092Z,15.28
2023-06-29T23:15:46.181Z,15.40
2023-06-29T23:18:14.408Z,15.40
2023-06-29T23:20:45.217Z,15.40
2023-06-29T23:23:14.179Z,15.40
2023-06-29T23:25:44.975Z,15.41
2023-06-29T23:28:12.290Z,15.42
2023-06-29T23:30:39.298Z,15.44
2023-06-29T23:33:09.620Z,15.43
2023-06-29T23:35:38.715Z,15.44
2023-06-29T23:38:05.677Z,15.43
2023-06-29T23:40:34.328Z,15.42
2023-06-29T23:43:05.698Z,15.40
2023-06-29T23:45:36.798Z,15.37
2023-06-29T23:48:06.688Z,15.35
2023-06-29T23:50:33.643Z,15.30
2023-06-29T23:53:00.532Z,15.26
2023-06-29T23:55:29.400Z,15.22
2023-06-29T23:57:56.681Z,15.15
